createdAt,value
2022-11-30T00:00:42.732Z,101041.63
2022-11-30T00:03:16.146Z,101042.81
2022-11-30T00:05:45.654Z,101044.34
2022-11-30T00:08:22.009Z,101045.94
2022-11-30T00:10:58.214Z,101045.03
2022-11-30T00:13:36.687Z,101045.84
2022-11-30T00:16:12.996Z,101040.97
2022-11-30T00:18:48.948Z,101039.78
2022-11-30T00:21:22.180Z,101046.09
2022-11-30T00:23:52.650Z,101037.34
2022-11-30T00:26:28.323Z,101034.44
2022-11-30T00:29:05.013Z,101039.94
2022-11-30T00:31:41.724Z,101038.41
2022-11-30T00:34:23.208Z,101040.75
2022-11-30T00:36:53.372Z,101035.50
2022-11-30T00:39:37.214Z,101038.66
2022-11-30T00:42:16.208Z,101038.19
2022-11-30T00:44:49.200Z,101034.13
2022-11-30T00:47:24.381Z,101042.19
2022-11-30T00:50:05.357Z,101038.56
2022-11-30T00:52:38.614Z,101039.28
2022-11-30T00:55:17.404Z,101041.28
2022-11-30T00:57:50.544Z,101048.84
2022-11-30T01:00:24.049Z,101043.25
2022-11-30T01:02:59.447Z,101041.19
2022-11-30T01:05:43.715Z,101035.91
2022-11-30T01:08:21.828Z,101043.84
2022-11-30T01:10:57.898Z,101038.25
2022-11-30T01:13:37.045Z,101049.47
2022-11-30T01:16:17.639Z,101041.41
2022-11-30T01:18:54.834Z,101046.66
2022-11-30T01:21:28.953Z,101037.44
2022-11-30T01:24:04.558Z,101035.00
2022-11-30T01:26:42.665Z,101044.56
2022-11-30T01:29:18.583Z,101047.03
2022-11-30T01:31:54.842Z,101033.81
2022-11-30T01:34:33.139Z,101040.94
2022-11-30T01:37:01.601Z,101038.94
2022-11-30T01:39:37.942Z,101041.31
2022-11-30T01:42:18.174Z,101031.63
2022-11-30T01:45:00.161Z,101037.22
2022-11-30T01:47:37.566Z,101041.66
2022-11-30T01:50:16.064Z,101039.22
2022-11-30T01:52:55.551Z,101035.22
2022-11-30T01:55:49.800Z,101038.84
2022-11-30T01:58:29.939Z,101034.78
2022-11-30T02:01:03.303Z,101032.00
2022-11-30T02:04:00.417Z,101034.31
2022-11-30T02:06:44.791Z,101039.66
2022-11-30T02:09:25.183Z,101032.09
2022-11-30T02:12:10.820Z,101024.13
2022-11-30T02:14:55.161Z,101033.09
2022-11-30T02:17:54.557Z,101027.16
2022-11-30T02:20:49.191Z,101029.13
2022-11-30T02:23:31.058Z,101027.25
2022-11-30T02:26:13.454Z,101031.69
2022-11-30T02:28:59.517Z,101034.59
2022-11-30T02:31:46.779Z,101024.44
2022-11-30T02:34:26.416Z,101037.38
2022-11-30T02:37:02.131Z,101026.41
2022-11-30T02:39:38.764Z,101027.69
2022-11-30T02:42:20.446Z,101028.97
2022-11-30T02:44:54.733Z,101025.09
2022-11-30T02:47:54.947Z,101029.88
2022-11-30T02:50:50.499Z,101024.75
2022-11-30T02:53:26.928Z,101027.56
2022-11-30T02:56:00.304Z,101026.25
2022-11-30T02:58:40.003Z,101020.75
2022-11-30T03:01:14.679Z,101015.03
2022-11-30T03:03:47.337Z,101020.22
2022-11-30T03:06:23.443Z,101018.00
2022-11-30T03:09:06.915Z,101017.19
2022-11-30T03:11:45.920Z,101022.25
2022-11-30T03:14:24.654Z,101016.88
2022-11-30T03:17:04.140Z,101011.19
2022-11-30T03:19:43.205Z,101022.28
2022-11-30T03:22:16.600Z,101019.38
2022-11-30T03:24:47.223Z,101017.75
2022-11-30T03:27:23.653Z,101015.63
2022-11-30T03:29:59.933Z,101022.53
2022-11-30T03:32:34.882Z,101022.81
2022-11-30T03:35:13.603Z,101022.81
2022-11-30T03:37:48.318Z,101020.34
2022-11-30T03:40:21.601Z,101022.66
2022-11-30T03:43:00.815Z,101030.63
2022-11-30T03:45:39.702Z,101019.41
2022-11-30T03:48:07.563Z,101023.41
2022-11-30T03:50:40.195Z,101020.22
2022-11-30T03:53:22.849Z,101025.25
2022-11-30T03:56:02.021Z,101024.81
2022-11-30T03:58:38.171Z,101020.72
2022-11-30T04:01:23.783Z,101016.31
2022-11-30T04:03:59.951Z,101024.81
2022-11-30T04:06:36.948Z,101018.38
2022-11-30T04:09:24.722Z,101026.34
2022-11-30T04:12:06.168Z,101023.53
2022-11-30T04:14:44.209Z,101030.31
2022-11-30T04:17:27.692Z,101028.22
2022-11-30T04:20:05.394Z,101020.97
2022-11-30T04:22:38.906Z,101028.56
2022-11-30T04:25:13.432Z,101022.13
2022-11-30T04:27:50.885Z,101018.72
2022-11-30T04:30:24.431Z,101028.94
2022-11-30T04:33:01.445Z,101028.41
2022-11-30T04:35:35.520Z,101031.22
2022-11-30T04:38:09.045Z,101025.16
2022-11-30T04:40:42.930Z,101027.13
2022-11-30T04:43:19.067Z,101030.31
2022-11-30T04:45:55.808Z,101033.91
2022-11-30T04:48:32.228Z,101033.91
2022-11-30T04:51:14.375Z,101033.44
2022-11-30T04:53:53.405Z,101039.03
2022-11-30T04:56:30.689Z,101045.47
2022-11-30T04:59:06.788Z,101039.41
2022-11-30T05:01:39.568Z,101040.22
2022-11-30T05:04:21.363Z,101038.13
2022-11-30T05:06:54.359Z,101036.13
2022-11-30T05:09:25.286Z,101035.69
2022-11-30T05:12:01.859Z,101034.16
2022-11-30T05:14:40.642Z,101028.19
2022-11-30T05:17:22.463Z,101030.75
2022-11-30T05:20:00.379Z,101036.00
2022-11-30T05:22:39.063Z,101034.16
2022-11-30T05:25:30.443Z,101043.03
2022-11-30T05:28:18.547Z,101044.66
2022-11-30T05:30:58.056Z,101045.16
2022-11-30T05:33:39.022Z,101043.59
2022-11-30T05:36:14.780Z,101044.78
2022-11-30T05:38:48.500Z,101044.88
2022-11-30T05:41:24.409Z,101038.56
2022-11-30T05:43:55.458Z,101045.81
2022-11-30T05:46:28.817Z,101047.44
2022-11-30T05:49:05.932Z,101058.28
2022-11-30T05:51:43.143Z,101054.34
2022-11-30T05:54:14.880Z,101054.34
2022-11-30T05:56:54.636Z,101049.19
2022-11-30T05:59:32.341Z,101058.88
2022-11-30T06:02:13.320Z,101051.66
2022-11-30T06:04:48.738Z,101054.44
2022-11-30T06:07:29.751Z,101055.25
2022-11-30T06:10:06.098Z,101060.06
2022-11-30T06:12:39.631Z,101054.78
2022-11-30T06:15:27.973Z,101054.56
2022-11-30T06:18:03.785Z,101046.16
2022-11-30T06:20:40.304Z,101044.63
2022-11-30T06:23:18.405Z,101057.47
2022-11-30T06:25:54.120Z,101050.22
2022-11-30T06:28:30.252Z,101050.94
2022-11-30T06:31:11.114Z,101055.38
2022-11-30T06:33:51.928Z,101062.16
2022-11-30T06:36:23.135Z,101055.38
2022-11-30T06:39:01.347Z,101064.59
2022-11-30T06:41:53.002Z,101064.59
2022-11-30T06:44:32.854Z,101069.38
2022-11-30T06:47:06.132Z,101074.19
2022-11-30T06:49:45.140Z,101064.47
2022-11-30T06:52:26.445Z,101080.97
2022-11-30T06:55:02.219Z,101073.97
2022-11-30T06:57:35.631Z,101080.97
2022-11-30T07:00:12.772Z,101075.34
2022-11-30T07:02:50.939Z,101079.19
2022-11-30T07:05:31.000Z,101082.91
2022-11-30T07:08:07.622Z,101082.19
2022-11-30T07:10:49.211Z,101096.44
2022-11-30T07:13:22.539Z,101095.38
2022-11-30T07:16:03.999Z,101099.56
2022-11-30T07:18:42.555Z,101103.88
2022-11-30T07:21:18.632Z,101105.06
2022-11-30T07:24:10.448Z,101105.06
2022-11-30T07:26:41.492Z,101106.91
2022-11-30T07:29:15.423Z,101114.09
2022-11-30T07:31:52.708Z,101114.28
2022-11-30T07:34:29.679Z,101111.09
2022-11-30T07:37:08.597Z,101113.91
2022-11-30T07:39:42.587Z,101111.03
2022-11-30T07:42:11.083Z,101113.47
2022-11-30T07:44:41.992Z,101110.59
2022-11-30T07:47:10.081Z,101123.56
2022-11-30T07:49:43.334Z,101118.84
2022-11-30T07:52:14.972Z,101116.66
2022-11-30T07:54:43.118Z,101114.41
2022-11-30T07:57:13.509Z,101117.84
2022-11-30T07:59:44.018Z,101118.47
2022-11-30T08:02:23.569Z,101125.19
2022-11-30T08:05:00.878Z,101125.94
2022-11-30T08:07:40.794Z,101128.88
2022-11-30T08:10:12.786Z,101131.31
2022-11-30T08:12:40.853Z,101135.03
2022-11-30T08:15:20.832Z,101132.09
2022-11-30T08:17:54.977Z,101139.72
2022-11-30T08:20:32.035Z,101141.03
2022-11-30T08:23:06.039Z,101146.97
2022-11-30T08:25:40.025Z,101156.81
2022-11-30T08:28:10.149Z,101156.59
2022-11-30T08:30:43.053Z,101156.03
2022-11-30T08:33:17.271Z,101159.66
2022-11-30T08:35:50.732Z,101165.97
2022-11-30T08:38:18.887Z,101165.28
2022-11-30T08:41:02.506Z,101170.47
2022-11-30T08:43:32.889Z,101170.75
2022-11-30T08:49:21.977Z,101175.78
2022-11-30T08:52:18.781Z,101168.16
2022-11-30T08:54:57.001Z,101174.16
2022-11-30T08:57:31.566Z,101176.97
2022-11-30T08:59:59.626Z,101165.69
2022-11-30T09:02:32.982Z,101166.81
2022-11-30T09:05:01.257Z,101168.44
2022-11-30T09:07:33.672Z,101170.09
2022-11-30T09:10:04.587Z,101168.97
2022-11-30T09:12:38.597Z,101163.81
2022-11-30T09:15:08.933Z,101168.25
2022-11-30T09:17:38.262Z,101165.13
2022-11-30T09:20:08.645Z,101161.88
2022-11-30T09:22:44.455Z,101174.59
2022-11-30T09:25:20.912Z,101168.25
2022-11-30T09:27:55.972Z,101170.31
2022-11-30T09:30:27.434Z,101171.13
2022-11-30T09:33:05.135Z,101180.84
2022-11-30T09:35:41.142Z,101178.09
2022-11-30T09:38:11.875Z,101178.09
2022-11-30T09:40:46.140Z,101175.94
2022-11-30T09:43:23.129Z,101170.59
2022-11-30T09:45:59.313Z,101170.91
2022-11-30T09:48:38.715Z,101160.09
2022-11-30T09:51:25.470Z,101158.59
2022-11-30T09:54:07.761Z,101159.88
2022-11-30T09:56:42.718Z,101149.34
2022-11-30T09:59:32.911Z,101153.22
2022-11-30T10:02:19.360Z,101144.53
2022-11-30T10:04:50.852Z,101156.59
2022-11-30T10:07:43.865Z,101150.75
2022-11-30T10:10:33.286Z,101137.06
2022-11-30T10:13:35.727Z,101143.03
2022-11-30T10:16:18.042Z,101137.34
2022-11-30T10:18:55.860Z,101149.41
2022-11-30T10:21:49.092Z,101134.59
2022-11-30T10:24:49.504Z,101131.50
2022-11-30T10:27:30.165Z,101135.47
2022-11-30T10:30:04.576Z,101124.94
2022-11-30T10:32:44.660Z,101125.78
2022-11-30T10:35:38.869Z,101126.53
2022-11-30T10:38:30.772Z,101126.97
2022-11-30T10:41:09.938Z,101123.53
2022-11-30T10:43:55.981Z,101119.63
2022-11-30T10:46:42.659Z,101121.56
2022-11-30T10:49:18.878Z,101111.03
2022-11-30T10:51:53.988Z,101111.03
2022-11-30T10:54:23.624Z,101107.41
2022-11-30T10:57:04.722Z,101104.41
2022-11-30T10:59:50.213Z,101106.75
2022-11-30T11:02:37.377Z,101108.59
2022-11-30T11:05:34.190Z,101104.81
2022-11-30T11:08:25.899Z,101099.25
2022-11-30T11:10:59.251Z,101098.22
2022-11-30T11:13:43.932Z,101098.81
2022-11-30T11:16:24.204Z,101098.28
2022-11-30T11:19:05.505Z,101096.13
2022-11-30T11:21:45.048Z,101092.56
2022-11-30T11:24:20.163Z,101094.88
2022-11-30T11:26:55.703Z,101087.13
2022-11-30T11:29:45.340Z,101090.59
2022-11-30T11:32:27.308Z,101083.25
2022-11-30T11:34:55.523Z,101088.31
2022-11-30T11:37:31.611Z,101080.13
2022-11-30T11:40:04.196Z,101078.78
2022-11-30T11:42:37.140Z,101080.06
2022-11-30T11:45:21.540Z,101086.78
2022-11-30T11:48:12.733Z,101090.81
2022-11-30T11:51:08.665Z,101082.28
2022-11-30T11:53:53.842Z,101078.59
2022-11-30T11:56:43.699Z,101074.53
2022-11-30T11:59:32.504Z,101084.53
2022-11-30T12:02:08.207Z,101076.06
2022-11-30T12:04:43.504Z,101070.97
2022-11-30T12:07:24.405Z,101070.84
2022-11-30T12:10:43.496Z,101071.72
2022-11-30T12:13:14.575Z,101071.16
2022-11-30T12:15:48.449Z,101065.81
2022-11-30T12:18:31.419Z,101060.50
2022-11-30T12:21:07.967Z,101063.94
2022-11-30T12:24:14.333Z,101061.88
2022-11-30T12:26:53.719Z,101060.16
2022-11-30T12:29:34.372Z,101056.91
2022-11-30T12:32:13.668Z,101050.47
2022-11-30T12:35:22.926Z,101050.00
2022-11-30T12:37:59.056Z,101052.84
2022-11-30T12:40:54.832Z,101041.06
2022-11-30T12:43:38.200Z,101049.06
2022-11-30T12:46:32.163Z,101042.59
2022-11-30T12:49:27.196Z,101037.44
2022-11-30T12:52:30.746Z,101042.59
2022-11-30T12:55:20.884Z,101036.69
2022-11-30T12:58:16.729Z,101038.59
2022-11-30T13:01:18.436Z,101036.03
2022-11-30T13:04:34.999Z,101039.25
2022-11-30T13:07:26.154Z,101039.81
2022-11-30T13:10:02.077Z,101040.91
2022-11-30T13:12:39.831Z,101038.44
2022-11-30T13:15:18.363Z,101037.19
2022-11-30T13:17:48.144Z,101034.19
2022-11-30T13:20:35.200Z,101034.41
2022-11-30T13:23:14.013Z,101036.09
2022-11-30T13:26:08.587Z,101033.22
2022-11-30T13:28:44.318Z,101032.41
2022-11-30T13:31:30.080Z,101033.44
2022-11-30T13:34:02.216Z,101027.69
2022-11-30T13:36:41.420Z,101033.03
2022-11-30T13:39:15.838Z,101024.19
2022-11-30T13:42:10.545Z,101023.72
2022-11-30T13:44:41.228Z,101031.97
2022-11-30T13:47:37.513Z,101037.75
2022-11-30T13:50:19.445Z,101033.03
2022-11-30T13:53:20.672Z,101035.88
2022-11-30T13:55:49.513Z,101031.44
2022-11-30T13:58:29.468Z,101035.75
2022-11-30T14:01:24.862Z,101028.84
2022-11-30T14:04:31.911Z,101032.88
2022-11-30T14:07:29.132Z,101025.16
2022-11-30T14:10:01.979Z,101032.34
2022-11-30T14:12:37.388Z,101033.22
2022-11-30T14:15:46.849Z,101025.97
2022-11-30T14:18:23.592Z,101020.75
2022-11-30T14:20:56.366Z,101017.34
2022-11-30T14:24:11.828Z,101030.28
2022-11-30T14:26:46.642Z,101027.88
2022-11-30T14:29:36.586Z,101027.41
2022-11-30T14:32:21.302Z,101037.47
2022-11-30T14:35:02.617Z,101035.00
2022-11-30T14:37:41.912Z,101029.59
2022-11-30T14:40:18.957Z,101025.16
2022-11-30T14:43:00.867Z,101021.97
2022-11-30T14:45:36.675Z,101024.41
2022-11-30T14:48:23.786Z,101009.94
2022-11-30T14:50:59.194Z,101009.94
2022-11-30T14:53:59.528Z,101011.56
2022-11-30T14:56:42.894Z,101018.03
2022-11-30T14:59:28.924Z,101006.84
2022-11-30T15:02:13.408Z,101006.56
2022-11-30T15:04:44.531Z,101005.44
2022-11-30T15:07:16.566Z,101004.63
2022-11-30T15:09:48.180Z,101008.25
2022-11-30T15:12:22.105Z,100998.09
2022-11-30T15:15:38.693Z,100995.22
2022-11-30T15:18:23.309Z,100994.31
2022-11-30T15:21:02.918Z,100995.50
2022-11-30T15:23:36.250Z,100995.13
2022-11-30T15:26:24.157Z,100993.44
2022-11-30T15:29:00.231Z,100980.91
2022-11-30T15:31:42.925Z,100982.53
2022-11-30T15:34:36.087Z,100983.63
2022-11-30T15:37:08.906Z,100982.94
2022-11-30T15:39:52.010Z,100990.69
2022-11-30T15:42:31.986Z,100986.16
2022-11-30T15:45:25.637Z,100986.22
2022-11-30T15:47:59.101Z,100990.53
2022-11-30T15:50:31.302Z,100990.22
2022-11-30T15:53:21.306Z,100989.59
2022-11-30T15:55:52.482Z,100984.09
2022-11-30T15:58:46.047Z,100989.72
2022-11-30T16:01:26.293Z,100989.72
2022-11-30T16:04:05.393Z,100989.19
2022-11-30T16:06:48.140Z,100990.81
2022-11-30T16:09:27.133Z,100983.16
2022-11-30T16:12:01.954Z,100990.81
2022-11-30T16:14:46.600Z,100984.88
2022-11-30T16:17:21.328Z,100996.94
2022-11-30T16:19:58.341Z,100988.34
2022-11-30T16:22:36.876Z,100998.94
2022-11-30T16:25:14.846Z,101000.06
2022-11-30T16:27:47.678Z,100995.22
2022-11-30T16:30:18.575Z,101004.59
2022-11-30T16:32:47.392Z,100997.31
2022-11-30T16:35:34.349Z,100998.50
2022-11-30T16:38:05.453Z,101000.94
2022-11-30T16:40:39.042Z,100997.25
2022-11-30T16:43:16.210Z,100996.88
2022-11-30T16:45:51.404Z,101000.88
2022-11-30T16:48:30.621Z,100998.06
2022-11-30T16:51:27.656Z,101002.94
2022-11-30T16:54:03.653Z,100998.56
2022-11-30T16:56:47.088Z,101005.13
2022-11-30T16:59:20.391Z,101012.56
2022-11-30T17:01:57.292Z,101014.56
2022-11-30T17:04:34.305Z,101009.03
2022-11-30T17:07:05.459Z,101007.31
2022-11-30T17:09:47.449Z,101007.31
2022-11-30T17:12:26.947Z,101006.31
2022-11-30T17:15:03.470Z,101013.91
2022-11-30T17:17:46.198Z,101005.50
2022-11-30T17:20:18.683Z,101012.31
2022-11-30T17:23:03.597Z,101015.75
2022-11-30T17:25:42.864Z,101001.66
2022-11-30T17:28:18.886Z,101008.78
2022-11-30T17:30:52.553Z,101008.78
2022-11-30T17:33:33.021Z,101006.38
2022-11-30T17:36:10.453Z,101017.91
2022-11-30T17:38:45.355Z,101015.56
2022-11-30T17:41:22.424Z,101014.38
2022-11-30T17:43:53.161Z,101021.94
2022-11-30T17:46:24.255Z,101020.31
2022-11-30T17:48:56.613Z,101022.69
2022-11-30T17:51:28.092Z,101027.03
2022-11-30T17:53:59.564Z,101028.31
2022-11-30T17:56:29.889Z,101032.31
2022-11-30T17:58:59.677Z,101031.41
2022-11-30T18:01:36.223Z,101032.53
2022-11-30T18:04:07.497Z,101029.50
2022-11-30T18:06:40.767Z,101045.47
2022-11-30T18:09:13.706Z,101042.28
2022-11-30T18:11:50.193Z,101053.91
2022-11-30T18:14:21.015Z,101043.47
2022-11-30T18:16:54.803Z,101053.03
2022-11-30T18:19:30.380Z,101040.22
2022-11-30T18:22:03.760Z,101040.16
2022-11-30T18:24:36.736Z,101038.59
2022-11-30T18:27:10.269Z,101040.59
2022-11-30T18:29:44.667Z,101036.88
2022-11-30T18:32:18.131Z,101034.44
2022-11-30T18:34:51.299Z,101039.63
2022-11-30T18:37:24.713Z,101032.38
2022-11-30T18:39:55.604Z,101040.50
2022-11-30T18:42:23.239Z,101045.69
2022-11-30T18:44:55.982Z,101042.81
2022-11-30T18:47:33.911Z,101041.47
2022-11-30T18:50:04.816Z,101046.22
2022-11-30T18:52:37.421Z,101043.47
2022-11-30T18:55:05.388Z,101041.75
2022-11-30T18:57:35.705Z,101055.63
2022-11-30T19:00:12.900Z,101054.41
2022-11-30T19:02:45.496Z,101064.88
2022-11-30T19:05:31.847Z,101061.81
2022-11-30T19:08:03.798Z,101064.91
2022-11-30T19:10:43.791Z,101060.91
2022-11-30T19:13:14.377Z,101066.53
2022-11-30T19:15:50.781Z,101061.91
2022-11-30T19:18:23.385Z,101066.66
2022-11-30T19:20:51.355Z,101066.19
2022-11-30T19:23:24.659Z,101053.66
2022-11-30T19:26:00.159Z,101053.13
2022-11-30T19:28:34.663Z,101055.59
2022-11-30T19:31:13.425Z,101055.13
2022-11-30T19:33:46.373Z,101050.78
2022-11-30T19:36:23.993Z,101051.16
2022-11-30T19:38:51.864Z,101059.59
2022-11-30T19:41:22.376Z,101052.63
2022-11-30T19:44:04.281Z,101062.94
2022-11-30T19:46:34.980Z,101065.41
2022-11-30T19:49:09.947Z,101055.72
2022-11-30T19:51:39.992Z,101058.16
2022-11-30T19:54:12.832Z,101063.78
2022-11-30T19:56:44.286Z,101056.16
2022-11-30T19:59:12.153Z,101056.16
2022-11-30T20:01:45.751Z,101058.25
2022-11-30T20:04:13.531Z,101066.88
2022-11-30T20:06:49.783Z,101061.59
2022-11-30T20:09:19.349Z,101063.59
2022-11-30T20:11:55.891Z,101052.28
2022-11-30T20:14:24.670Z,101061.19
2022-11-30T20:16:55.515Z,101062.78
2022-11-30T20:19:23.360Z,101053.47
2022-11-30T20:21:56.641Z,101063.53
2022-11-30T20:24:26.642Z,101061.59
2022-11-30T20:27:00.092Z,101063.19
2022-11-30T20:29:29.647Z,101067.53
2022-11-30T20:31:59.910Z,101071.06
2022-11-30T20:34:43.440Z,101060.28
2022-11-30T20:37:12.322Z,101060.19
2022-11-30T20:39:45.799Z,101059.38
2022-11-30T20:42:21.865Z,101059.38
2022-11-30T20:44:50.222Z,101065.78
2022-11-30T20:47:21.241Z,101066.91
2022-11-30T20:49:52.109Z,101060.94
2022-11-30T20:52:19.911Z,101060.94
2022-11-30T20:54:50.282Z,101064.91
2022-11-30T20:57:23.789Z,101065.72
2022-11-30T20:59:59.787Z,101058.00
2022-11-30T21:02:30.346Z,101066.44
2022-11-30T21:05:00.986Z,101061.66
2022-11-30T21:07:39.405Z,101064.75
2022-11-30T21:10:15.039Z,101066.38
2022-11-30T21:12:45.885Z,101069.44
2022-11-30T21:15:21.597Z,101069.63
2022-11-30T21:17:49.644Z,101063.44
2022-11-30T21:20:22.631Z,101063.44
2022-11-30T21:22:53.920Z,101064.25
2022-11-30T21:25:24.671Z,101070.25
2022-11-30T21:27:52.564Z,101064.09
2022-11-30T21:30:23.439Z,101076.59
2022-11-30T21:32:53.868Z,101072.59
2022-11-30T21:35:27.359Z,101074.69
2022-11-30T21:38:00.022Z,101076.69
2022-11-30T21:40:30.829Z,101073.16
2022-11-30T21:43:00.862Z,101069.78
2022-11-30T21:45:31.649Z,101075.06
2022-11-30T21:48:02.413Z,101076.69
2022-11-30T21:50:30.275Z,101079.50
2022-11-30T21:53:03.628Z,101084.78
2022-11-30T21:55:39.216Z,101091.56
2022-11-30T21:58:10.032Z,101078.59
2022-11-30T22:00:40.788Z,101085.13
2022-11-30T22:03:19.727Z,101082.69
2022-11-30T22:06:04.047Z,101086.00
2022-11-30T22:08:37.400Z,101090.41
2022-11-30T22:11:12.744Z,101080.84
2022-11-30T22:13:41.269Z,101089.84
2022-11-30T22:16:12.527Z,101084.56
2022-11-30T22:18:47.546Z,101087.84
2022-11-30T22:21:20.352Z,101088.84
2022-11-30T22:23:59.206Z,101094.34
2022-11-30T22:26:36.066Z,101092.94
2022-11-30T22:29:18.933Z,101094.56
2022-11-30T22:31:55.655Z,101084.88
2022-11-30T22:34:26.753Z,101089.31
2022-11-30T22:36:54.559Z,101093.31
2022-11-30T22:39:28.263Z,101099.38
2022-11-30T22:42:01.002Z,101093.81
2022-11-30T22:44:37.143Z,101091.00
2022-11-30T22:47:10.461Z,101087.84
2022-11-30T22:49:42.220Z,101090.59
2022-11-30T22:52:12.194Z,101090.13
2022-11-30T22:54:39.932Z,101084.41
2022-11-30T22:57:16.025Z,101087.75
2022-11-30T22:59:47.086Z,101092.28
2022-11-30T23:02:17.665Z,101087.84
2022-11-30T23:04:48.829Z,101089.38
2022-11-30T23:07:21.355Z,101096.09
2022-11-30T23:09:57.234Z,101097.16
2022-11-30T23:12:57.893Z,101095.91
2022-11-30T23:15:26.480Z,101085.75
2022-11-30T23:17:59.560Z,101092.56
2022-11-30T23:20:33.728Z,101083.66
2022-11-30T23:23:09.363Z,101080.03
2022-11-30T23:25:42.890Z,101082.28
2022-11-30T23:28:16.703Z,101088.72
2022-11-30T23:30:49.690Z,101082.28
2022-11-30T23:33:24.254Z,101085.81
2022-11-30T23:35:59.958Z,101079.75
2022-11-30T23:38:30.283Z,101086.19
2022-11-30T23:41:09.970Z,101085.72
2022-11-30T23:43:41.175Z,101078.50
2022-11-30T23:46:13.861Z,101076.88
2022-11-30T23:48:41.984Z,101066.69
2022-11-30T23:51:09.796Z,101069.16
2022-11-30T23:53:39.805Z,101071.16
2022-11-30T23:56:11.859Z,101070.69
2022-11-30T23:58:45.549Z,101065.88
